createdAt,value
2023-02-12T00:01:25.934Z,30.88
2023-02-12T00:03:53.546Z,31.13
2023-02-12T00:06:21.137Z,30.13
2023-02-12T00:08:52.096Z,30.30
2023-02-12T00:11:27.511Z,30.63
2023-02-12T00:13:55.837Z,30.88
2023-02-12T00:16:27.677Z,31.50
2023-02-12T00:18:58.465Z,32.15
2023-02-12T00:21:25.971Z,30.45
2023-02-12T00:23:53.562Z,31.02
2023-02-12T00:26:22.997Z,30.50
2023-02-12T00:28:51.833Z,31.15
2023-02-12T00:31:27.690Z,30.77
2023-02-12T00:33:57.051Z,32.55
2023-02-12T00:36:27.686Z,30.63
2023-02-12T00:38:56.351Z,31.63
2023-02-12T00:41:25.955Z,33.53
2023-02-12T00:43:53.921Z,31.13
2023-02-12T00:46:21.924Z,33.60
2023-02-12T00:48:49.231Z,32.38
2023-02-12T00:51:19.081Z,32.25
2023-02-12T00:53:46.687Z,32.67
2023-02-12T00:56:15.484Z,33.63
2023-02-12T00:58:42.581Z,32.05
2023-02-12T01:01:09.842Z,33.60
2023-02-12T01:03:38.829Z,31.83
2023-02-12T01:06:06.688Z,32.72
2023-02-12T01:08:34.059Z,33.63
2023-02-12T01:11:04.428Z,32.35
2023-02-12T01:13:33.787Z,30.70
2023-02-12T01:16:15.966Z,33.67
2023-02-12T01:18:43.822Z,30.58
2023-02-12T01:21:21.021Z,31.70
2023-02-12T01:23:49.546Z,32.03
2023-02-12T01:26:19.461Z,31.77
2023-02-12T01:28:53.359Z,33.63
2023-02-12T01:31:25.890Z,32.50
2023-02-12T01:33:56.776Z,31.90
2023-02-12T01:36:25.271Z,31.83
2023-02-12T01:38:53.497Z,31.17
2023-02-12T01:41:25.354Z,31.92
2023-02-12T01:44:28.738Z,29.75
2023-02-12T01:47:02.775Z,32.58
2023-02-12T01:49:46.170Z,32.58
2023-02-12T01:52:20.675Z,31.73
2023-02-12T01:54:51.755Z,33.92
2023-02-12T01:57:20.018Z,33.28
2023-02-12T01:59:53.065Z,31.67
2023-02-12T02:02:20.714Z,32.90
2023-02-12T02:04:57.456Z,32.75
2023-02-12T02:07:24.501Z,34.15
2023-02-12T02:09:52.951Z,33.25
2023-02-12T02:12:38.897Z,33.90
2023-02-12T02:15:06.849Z,32.40
2023-02-12T02:18:15.096Z,33.38
2023-02-12T02:21:06.628Z,32.38
2023-02-12T02:23:39.142Z,31.80
2023-02-12T02:26:59.058Z,34.13
2023-02-12T02:29:46.784Z,29.52
2023-02-12T02:32:32.617Z,32.13
2023-02-12T02:35:08.502Z,33.60
2023-02-12T02:37:48.999Z,32.33
2023-02-12T02:40:31.524Z,32.13
2023-02-12T02:43:10.884Z,31.40
2023-02-12T02:45:47.342Z,31.90
2023-02-12T02:48:50.387Z,31.48
2023-02-12T02:51:32.126Z,32.75
2023-02-12T02:54:04.089Z,31.02
2023-02-12T02:56:37.194Z,31.92
2023-02-12T02:59:11.424Z,33.35
2023-02-12T03:01:53.000Z,32.67
2023-02-12T03:04:32.805Z,32.63
2023-02-12T03:07:11.451Z,33.72
2023-02-12T03:09:43.861Z,35.03
2023-02-12T03:12:38.229Z,32.97
2023-02-12T03:15:17.652Z,31.60
2023-02-12T03:17:50.590Z,34.58
2023-02-12T03:20:49.830Z,35.10
2023-02-12T03:23:35.878Z,31.02
2023-02-12T03:26:21.520Z,30.00
2023-02-12T03:31:35.354Z,33.05
2023-02-12T03:34:35.008Z,30.85
2023-02-12T03:37:11.977Z,32.08
2023-02-12T03:40:17.308Z,31.83
2023-02-12T03:43:21.186Z,31.85
2023-02-12T03:45:59.839Z,33.47
2023-02-12T03:48:59.067Z,31.58
2023-02-12T03:51:35.505Z,32.53
2023-02-12T03:54:05.036Z,31.98
2023-02-12T03:56:59.729Z,33.28
2023-02-12T03:59:27.374Z,33.10
2023-02-12T04:01:58.248Z,32.80
2023-02-12T04:04:27.038Z,31.17
2023-02-12T04:06:55.301Z,35.42
2023-02-12T04:09:25.260Z,31.80
2023-02-12T04:12:10.188Z,34.45
2023-02-12T04:15:02.604Z,33.92
2023-02-12T04:17:50.092Z,35.35
2023-02-12T04:20:44.424Z,34.38
2023-02-12T04:23:23.299Z,33.38
2023-02-12T04:26:17.375Z,34.67
2023-02-12T04:29:07.584Z,35.17
2023-02-12T04:31:58.209Z,33.55
2023-02-12T04:34:37.326Z,35.10
2023-02-12T04:37:44.280Z,35.10
2023-02-12T04:40:19.383Z,32.40
2023-02-12T04:42:50.650Z,36.80
2023-02-12T04:45:28.446Z,36.13
2023-02-12T04:47:55.837Z,33.60
2023-02-12T04:50:23.638Z,33.70
2023-02-12T04:52:50.611Z,35.17
2023-02-12T04:55:17.774Z,33.78
2023-02-12T04:57:44.720Z,35.90
2023-02-12T05:00:15.965Z,34.33
2023-02-12T05:02:42.896Z,35.92
2023-02-12T05:05:09.954Z,34.67
2023-02-12T05:07:36.996Z,35.22
2023-02-12T05:10:04.333Z,34.30
2023-02-12T05:12:31.311Z,36.10
2023-02-12T05:14:58.644Z,33.85
2023-02-12T05:17:25.633Z,32.92
2023-02-12T05:19:52.824Z,36.83
2023-02-12T05:22:19.853Z,37.28
2023-02-12T05:24:46.936Z,33.65
2023-02-12T05:27:13.953Z,33.30
2023-02-12T05:29:41.090Z,38.03
2023-02-12T05:32:08.475Z,36.63
2023-02-12T05:34:36.502Z,37.33
2023-02-12T05:37:03.875Z,34.75
2023-02-12T05:39:31.095Z,35.03
2023-02-12T05:41:57.966Z,36.33
2023-02-12T05:44:24.859Z,37.55
2023-02-12T05:46:51.866Z,37.28
2023-02-12T05:49:18.895Z,35.65
2023-02-12T05:51:45.942Z,36.67
2023-02-12T05:54:12.873Z,37.33
2023-02-12T05:56:47.320Z,34.60
2023-02-12T05:59:23.795Z,34.47
2023-02-12T06:01:52.270Z,33.25
2023-02-12T06:04:25.018Z,34.95
2023-02-12T06:06:53.925Z,34.67
2023-02-12T06:09:21.129Z,39.08
2023-02-12T06:11:48.802Z,38.42
2023-02-12T06:14:19.728Z,32.38
2023-02-12T06:16:57.742Z,35.92
2023-02-12T06:19:25.012Z,34.67
2023-02-12T06:21:51.931Z,37.20
2023-02-12T06:24:18.894Z,33.35
2023-02-12T06:26:50.801Z,31.73
2023-02-12T06:29:19.506Z,32.72
2023-02-12T06:31:46.902Z,35.53
2023-02-12T06:34:17.977Z,33.67
2023-02-12T06:36:47.836Z,34.75
2023-02-12T06:39:17.540Z,34.67
2023-02-12T06:41:45.034Z,32.92
2023-02-12T06:44:13.540Z,33.50
2023-02-12T06:46:41.018Z,32.85
2023-02-12T06:49:11.121Z,33.33
2023-02-12T06:51:40.294Z,29.48
2023-02-12T06:54:14.358Z,29.33
2023-02-12T06:56:41.297Z,32.10
2023-02-12T06:59:14.214Z,26.52
2023-02-12T07:01:41.615Z,30.65
2023-02-12T07:04:08.755Z,28.40
2023-02-12T07:06:36.885Z,28.60
2023-02-12T07:09:05.674Z,29.45
2023-02-12T07:11:38.078Z,29.23
2023-02-12T07:14:06.601Z,28.08
2023-02-12T07:16:33.713Z,29.55
2023-02-12T07:19:00.758Z,30.50
2023-02-12T07:21:27.680Z,30.67
2023-02-12T07:23:55.365Z,31.33
2023-02-12T07:26:23.006Z,30.42
2023-02-12T07:28:51.215Z,30.23
2023-02-12T07:31:23.657Z,28.80
2023-02-12T07:33:55.906Z,26.85
2023-02-12T07:36:24.593Z,29.40
2023-02-12T07:38:52.271Z,28.35
2023-02-12T07:41:23.058Z,27.63
2023-02-12T07:43:56.247Z,28.55
2023-02-12T07:46:34.074Z,26.95
2023-02-12T07:49:05.402Z,26.38
2023-02-12T07:51:35.091Z,25.63
2023-02-12T07:54:03.107Z,26.58
2023-02-12T07:56:36.662Z,29.48
2023-02-12T07:59:08.703Z,27.60
2023-02-12T08:01:43.799Z,27.45
2023-02-12T08:04:14.472Z,26.20
2023-02-12T08:06:45.733Z,27.75
2023-02-12T08:09:18.762Z,23.52
2023-02-12T08:11:46.657Z,25.77
2023-02-12T08:14:17.440Z,27.83
2023-02-12T08:16:47.173Z,26.63
2023-02-12T08:19:19.759Z,25.23
2023-02-12T08:21:53.756Z,28.38
2023-02-12T08:24:24.461Z,26.35
2023-02-12T08:26:54.979Z,27.15
2023-02-12T08:29:31.667Z,27.73
2023-02-12T08:32:02.210Z,25.73
2023-02-12T08:34:33.920Z,27.40
2023-02-12T08:37:01.853Z,26.98
2023-02-12T08:39:30.096Z,25.17
2023-02-12T08:41:59.672Z,25.95
2023-02-12T08:44:26.764Z,25.45
2023-02-12T08:46:55.839Z,26.45
2023-02-12T08:49:29.871Z,24.63
2023-02-12T08:51:59.081Z,23.55
2023-02-12T08:54:29.319Z,25.88
2023-02-12T08:56:59.578Z,24.05
2023-02-12T08:59:26.701Z,25.42
2023-02-12T09:01:54.973Z,27.35
2023-02-12T09:04:26.299Z,25.88
2023-02-12T09:06:53.951Z,27.48
2023-02-12T09:09:21.822Z,26.50
2023-02-12T09:11:55.097Z,28.65
2023-02-12T09:14:24.073Z,27.00
2023-02-12T09:16:53.028Z,25.95
2023-02-12T09:19:20.992Z,24.60
2023-02-12T09:21:56.633Z,23.13
2023-02-12T09:24:27.368Z,23.45
2023-02-12T09:26:57.203Z,22.65
2023-02-12T09:33:43.440Z,20.35
2023-02-12T09:36:14.603Z,18.63
2023-02-12T09:38:41.823Z,19.48
2023-02-12T09:41:23.734Z,18.23
2023-02-12T09:44:00.582Z,19.20
2023-02-12T09:46:45.579Z,17.60
2023-02-12T09:49:53.453Z,20.55
2023-02-12T09:52:26.776Z,19.48
2023-02-12T09:54:54.910Z,18.40
2023-02-12T09:57:34.565Z,17.23
2023-02-12T10:00:09.421Z,16.85
2023-02-12T10:02:39.648Z,19.00
2023-02-12T10:05:23.650Z,16.58
2023-02-12T10:08:08.402Z,18.83
2023-02-12T10:10:44.281Z,17.30
2023-02-12T10:13:36.204Z,17.42
2023-02-12T10:16:18.269Z,16.60
2023-02-12T10:18:58.128Z,17.25
2023-02-12T10:21:43.910Z,17.23
2023-02-12T10:24:49.173Z,15.25
2023-02-12T10:27:24.680Z,15.65
2023-02-12T10:29:52.856Z,15.75
2023-02-12T10:32:30.828Z,15.60
2023-02-12T10:34:59.713Z,16.92
2023-02-12T10:37:50.445Z,15.48
2023-02-12T10:40:39.038Z,17.95
2023-02-12T10:43:06.047Z,16.98
2023-02-12T10:45:39.912Z,15.60
2023-02-12T10:48:22.425Z,16.00
2023-02-12T10:51:08.272Z,15.68
2023-02-12T10:53:55.140Z,14.60
2023-02-12T10:56:24.874Z,14.85
2023-02-12T10:59:00.349Z,12.10
2023-02-12T11:01:33.680Z,12.35
2023-02-12T11:04:21.304Z,12.43
2023-02-12T11:07:03.480Z,12.65
2023-02-12T11:09:45.265Z,12.68
2023-02-12T11:12:30.673Z,11.77
2023-02-12T11:15:12.750Z,11.02
2023-02-12T11:17:45.078Z,10.98
2023-02-12T11:20:18.170Z,10.60
2023-02-12T11:22:52.545Z,9.52
2023-02-12T11:25:21.145Z,9.40
2023-02-12T11:28:15.633Z,8.32
2023-02-12T11:31:25.494Z,9.13
2023-02-12T11:34:14.793Z,8.73
2023-02-12T11:36:50.015Z,8.65
2023-02-12T11:39:35.849Z,7.63
2023-02-12T11:42:17.266Z,8.32
2023-02-12T11:44:57.394Z,7.13
2023-02-12T11:47:36.209Z,8.77
2023-02-12T11:50:22.386Z,8.23
2023-02-12T11:52:53.608Z,8.07
2023-02-12T11:55:35.082Z,7.55
2023-02-12T11:58:13.152Z,7.30
2023-02-12T12:01:02.852Z,7.93
2023-02-12T12:04:03.223Z,7.28
2023-02-12T12:06:37.770Z,7.40
2023-02-12T12:09:22.910Z,7.55
2023-02-12T12:12:08.958Z,7.28
2023-02-12T12:15:18.947Z,6.53
2023-02-12T12:18:19.504Z,6.70
2023-02-12T12:21:00.949Z,6.75
2023-02-12T12:24:38.016Z,6.30
2023-02-12T12:27:45.918Z,6.35
2023-02-12T12:30:51.826Z,7.10
2023-02-12T12:33:51.491Z,7.10
2023-02-12T12:37:20.068Z,6.22
2023-02-12T12:40:19.971Z,6.40
2023-02-12T12:43:04.077Z,6.38
2023-02-12T12:46:38.987Z,6.57
2023-02-12T12:49:46.448Z,6.05
2023-02-12T12:52:46.142Z,5.47
2023-02-12T12:56:05.436Z,5.72
2023-02-12T12:58:55.343Z,5.40
2023-02-12T13:02:02.984Z,5.85
2023-02-12T13:05:07.385Z,5.10
2023-02-12T13:08:05.322Z,5.45
2023-02-12T13:10:44.150Z,5.85
2023-02-12T13:13:34.889Z,6.95
2023-02-12T13:16:33.765Z,6.15
2023-02-12T13:19:21.537Z,7.03
2023-02-12T13:21:57.436Z,6.85
2023-02-12T13:24:43.692Z,7.65
2023-02-12T13:27:16.616Z,6.13
2023-02-12T13:29:52.540Z,6.05
2023-02-12T13:32:43.394Z,6.55
2023-02-12T13:35:20.824Z,6.35
2023-02-12T13:37:54.485Z,7.38
2023-02-12T13:40:25.385Z,7.60
2023-02-12T13:43:04.413Z,7.10
2023-02-12T13:45:34.495Z,7.43
2023-02-12T13:48:19.905Z,7.57
2023-02-12T13:51:41.694Z,7.50
2023-02-12T13:54:47.089Z,7.30
2023-02-12T13:57:17.984Z,7.22
2023-02-12T13:59:58.111Z,6.20
2023-02-12T14:02:34.455Z,6.65
2023-02-12T14:05:30.802Z,7.25
2023-02-12T14:08:05.770Z,7.07
2023-02-12T14:10:41.752Z,7.38
2023-02-12T14:13:16.433Z,7.50
2023-02-12T14:15:52.388Z,6.45
2023-02-12T14:18:26.714Z,7.72
2023-02-12T14:21:12.192Z,7.03
2023-02-12T14:26:23.997Z,7.88
2023-02-12T14:29:06.372Z,6.57
2023-02-12T14:31:39.520Z,6.65
2023-02-12T14:34:06.529Z,6.43
2023-02-12T14:36:33.478Z,5.97
2023-02-12T14:39:19.591Z,6.00
2023-02-12T14:42:16.020Z,5.82
2023-02-12T14:44:57.935Z,5.85
2023-02-12T14:47:31.395Z,6.57
2023-02-12T14:50:12.263Z,7.15
2023-02-12T14:52:48.935Z,6.70
2023-02-12T14:55:30.246Z,6.75
2023-02-12T14:58:01.877Z,5.60
2023-02-12T15:00:38.845Z,5.85
2023-02-12T15:03:18.029Z,7.15
2023-02-12T15:06:13.578Z,5.75
2023-02-12T15:08:46.987Z,6.43
2023-02-12T15:11:16.572Z,6.63
2023-02-12T15:13:57.134Z,7.82
2023-02-12T15:17:17.354Z,6.70
2023-02-12T15:20:08.110Z,6.57
2023-02-12T15:22:41.219Z,7.93
2023-02-12T15:25:38.244Z,7.97
2023-02-12T15:37:06.304Z,7.93
2023-02-12T15:39:48.244Z,7.07
2023-02-12T15:42:32.765Z,7.35
2023-02-12T15:45:16.651Z,7.05
2023-02-12T15:47:54.478Z,9.13
2023-02-12T15:50:22.628Z,7.50
2023-02-12T15:52:52.216Z,6.40
2023-02-12T15:55:25.226Z,8.27
2023-02-12T15:57:59.963Z,8.40
2023-02-12T16:00:41.602Z,9.57
2023-02-12T16:03:27.738Z,8.27
2023-02-12T16:06:02.259Z,9.02
2023-02-12T16:08:32.914Z,10.30
2023-02-12T16:11:13.811Z,10.73
2023-02-12T16:13:50.708Z,8.32
2023-02-12T16:16:22.792Z,9.32
2023-02-12T16:19:29.891Z,8.77
2023-02-12T16:22:11.109Z,11.02
2023-02-12T16:24:48.865Z,11.52
2023-02-12T16:27:17.833Z,9.52
2023-02-12T16:29:50.484Z,9.02
2023-02-12T16:32:40.605Z,9.80
2023-02-12T16:35:31.030Z,10.40
2023-02-12T16:38:02.392Z,10.35
2023-02-12T16:40:34.427Z,11.68
2023-02-12T16:43:24.535Z,10.70
2023-02-12T16:46:03.024Z,10.10
2023-02-12T16:48:31.207Z,10.65
2023-02-12T16:50:59.391Z,9.52
2023-02-12T16:53:36.831Z,8.70
2023-02-12T16:56:05.723Z,9.10
2023-02-12T16:58:32.736Z,9.23
2023-02-12T17:01:04.283Z,8.57
2023-02-12T17:03:31.939Z,8.88
2023-02-12T17:05:59.384Z,9.00
2023-02-12T17:08:26.744Z,9.07
2023-02-12T17:10:53.748Z,9.07
2023-02-12T17:13:22.264Z,11.07
2023-02-12T17:15:58.234Z,11.20
2023-02-12T17:18:25.874Z,10.27
2023-02-12T17:21:01.269Z,11.98
2023-02-12T17:23:29.229Z,10.45
2023-02-12T17:25:56.692Z,12.02
2023-02-12T17:28:25.119Z,13.07
2023-02-12T17:30:54.071Z,11.82
2023-02-12T17:33:22.736Z,12.43
2023-02-12T17:35:49.954Z,12.85
2023-02-12T17:38:16.838Z,12.20
2023-02-12T17:40:43.875Z,12.07
2023-02-12T17:43:11.089Z,11.45
2023-02-12T17:45:45.835Z,11.70
2023-02-12T17:48:15.821Z,11.95
2023-02-12T17:50:43.434Z,15.25
2023-02-12T17:53:11.441Z,14.35
2023-02-12T17:55:41.202Z,16.65
2023-02-12T17:58:08.980Z,15.73
2023-02-12T18:00:36.142Z,16.05
2023-02-12T18:03:03.733Z,15.90
2023-02-12T18:05:31.025Z,15.30
2023-02-12T18:07:58.483Z,16.67
2023-02-12T18:10:25.670Z,15.30
2023-02-12T18:12:52.684Z,15.32
2023-02-12T18:15:21.246Z,16.77
2023-02-12T18:17:48.426Z,15.02
2023-02-12T18:20:15.447Z,14.55
2023-02-12T18:22:42.486Z,15.57
2023-02-12T18:25:09.885Z,14.88
2023-02-12T18:27:39.477Z,16.73
2023-02-12T18:30:08.986Z,17.13
2023-02-12T18:32:39.241Z,14.95
2023-02-12T18:35:08.537Z,17.58
2023-02-12T18:37:35.908Z,16.38
2023-02-12T18:40:03.837Z,16.02
2023-02-12T18:42:33.348Z,16.15
2023-02-12T18:45:00.489Z,16.00
2023-02-12T18:47:27.894Z,15.63
2023-02-12T18:49:57.896Z,15.77
2023-02-12T18:52:25.212Z,16.30
2023-02-12T18:54:53.139Z,13.77
2023-02-12T18:57:20.937Z,16.27
2023-02-12T18:59:48.348Z,14.60
2023-02-12T19:02:15.530Z,17.23
2023-02-12T19:04:42.739Z,15.25
2023-02-12T19:07:10.232Z,14.57
2023-02-12T19:09:37.311Z,17.13
2023-02-12T19:12:06.927Z,15.18
2023-02-12T19:14:34.250Z,15.43
2023-02-12T19:17:01.235Z,16.80
2023-02-12T19:19:29.491Z,15.02
2023-02-12T19:21:56.809Z,15.82
2023-02-12T19:24:24.174Z,15.85
2023-02-12T19:26:53.123Z,15.82
2023-02-12T19:29:21.642Z,16.58
2023-02-12T19:31:49.098Z,16.00
2023-02-12T19:34:21.682Z,14.35
2023-02-12T19:36:51.289Z,15.60
2023-02-12T19:39:22.706Z,13.75
2023-02-12T19:41:51.518Z,16.05
2023-02-12T19:44:24.734Z,17.10
2023-02-12T19:46:53.142Z,15.05
2023-02-12T19:49:26.998Z,14.57
2023-02-12T19:51:54.832Z,15.80
2023-02-12T19:54:24.285Z,14.55
2023-02-12T19:56:53.838Z,13.98
2023-02-12T19:59:24.686Z,12.82
2023-02-12T20:01:52.673Z,13.00
2023-02-12T20:04:22.926Z,13.43
2023-02-12T20:06:51.346Z,12.77
2023-02-12T20:09:21.373Z,13.07
2023-02-12T20:11:48.970Z,13.93
2023-02-12T20:14:16.283Z,14.68
2023-02-12T20:16:46.693Z,15.82
2023-02-12T20:19:20.252Z,16.00
2023-02-12T20:21:53.313Z,16.00
2023-02-12T20:24:25.934Z,15.25
2023-02-12T20:26:54.593Z,13.93
2023-02-12T20:29:23.410Z,14.77
2023-02-12T20:31:51.344Z,15.93
2023-02-12T20:34:20.206Z,14.07
2023-02-12T20:36:49.877Z,14.45
2023-02-12T20:39:20.219Z,15.25
2023-02-12T20:41:50.082Z,14.05
2023-02-12T20:44:21.429Z,13.25
2023-02-12T20:46:54.582Z,14.75
2023-02-12T20:49:26.554Z,16.75
2023-02-12T21:27:50.616Z,14.57
2023-02-12T21:30:18.049Z,15.20
2023-02-12T21:32:45.478Z,14.02
2023-02-12T21:35:12.880Z,12.18
2023-02-12T21:37:39.790Z,13.00
2023-02-12T21:40:07.808Z,15.63
2023-02-12T21:42:34.875Z,15.70
2023-02-12T21:45:02.180Z,14.98
2023-02-12T21:47:32.043Z,13.23
2023-02-12T21:49:59.354Z,12.65
2023-02-12T21:52:26.347Z,13.88
2023-02-12T21:54:56.101Z,13.48
2023-02-12T21:57:23.063Z,13.70
2023-02-12T21:59:50.024Z,13.50
2023-02-12T22:02:21.736Z,12.30
2023-02-12T22:04:54.729Z,12.10
2023-02-12T22:07:21.690Z,14.45
2023-02-12T22:09:49.703Z,12.30
2023-02-12T22:12:16.716Z,13.25
2023-02-12T22:14:45.672Z,12.10
2023-02-12T22:17:12.585Z,11.65
2023-02-12T22:19:41.277Z,12.52
2023-02-12T22:22:08.705Z,15.73
2023-02-12T22:24:37.840Z,14.18
2023-02-12T22:27:05.129Z,15.68
2023-02-12T22:29:32.512Z,15.63
2023-02-12T22:31:59.716Z,16.42
2023-02-12T22:34:26.853Z,14.68
2023-02-12T22:36:53.820Z,13.68
2023-02-12T22:39:21.338Z,13.93
2023-02-12T22:41:48.497Z,13.85
2023-02-12T22:44:18.914Z,14.85
2023-02-12T22:46:48.658Z,13.43
2023-02-12T22:49:16.691Z,12.73
2023-02-12T22:51:43.626Z,12.20
2023-02-12T22:54:15.945Z,14.00
2023-02-12T22:56:44.343Z,13.63
2023-02-12T22:59:13.155Z,14.30
2023-02-12T23:01:41.530Z,13.07
2023-02-12T23:04:18.217Z,12.77
2023-02-12T23:06:46.151Z,13.27
2023-02-12T23:09:17.718Z,12.18
2023-02-12T23:11:45.339Z,13.45
2023-02-12T23:14:12.592Z,13.75
2023-02-12T23:16:39.612Z,11.82
2023-02-12T23:19:06.674Z,14.73
2023-02-12T23:21:34.265Z,13.00
2023-02-12T23:24:01.329Z,14.18
2023-02-12T23:26:30.057Z,14.75
2023-02-12T23:28:57.765Z,14.10
2023-02-12T23:31:25.497Z,14.50
2023-02-12T23:33:52.527Z,14.85
2023-02-12T23:36:19.617Z,15.38
2023-02-12T23:38:47.696Z,14.05
2023-02-12T23:41:14.612Z,13.73
2023-02-12T23:43:41.619Z,13.93
2023-02-12T23:46:09.324Z,14.10
2023-02-12T23:48:36.522Z,15.13
2023-02-12T23:51:04.085Z,15.13
2023-02-12T23:53:30.979Z,14.10
2023-02-12T23:55:57.941Z,14.80
2023-02-12T23:58:25.154Z,13.88
